EVA870 VHHH-RCTP
Flight info
| Callsign | EVA870 |
|---|---|
| Flight time | 1h 7m |
| Altitude | 37000 |
| Route | DALOL V631 ENVAR M750 EXTRA/N0468F290 M750 TONGA TONGA1A |
| Aircraft | B77W/H-SDE1E2E3FGHIJ2J3J4J5M1RWXY/LB1D1 |
Departure
| Time | 2026-05-03 21:38 |
|---|---|
| Airport | Hong Kong International Airport (VHHH) |
Arrival
| Time | 2026-05-03 22:45 |
|---|---|
| Airport | Taiwan Taoyuan International Airport (RCTP) |
| Time | Latitude | Longitude | Altitude | Speed | Heading |
|---|---|---|---|---|---|
| 2026-05-03 21:15 | 22.31407 | 113.92710 | 41 ft | 0 kts | 205° |
| 2026-05-03 21:23 | 22.31419 | 113.92716 | 41 ft | 2 kts | 205° |
| 2026-05-03 21:23 | 22.31432 | 113.92723 | 41 ft | 2 kts | 205° |
| 2026-05-03 21:23 | 22.31446 | 113.92730 | 41 ft | 2 kts | 205° |
| 2026-05-03 21:24 | 22.31459 | 113.92738 | 41 ft | 2 kts | 205° |
| 2026-05-03 21:24 | 22.31473 | 113.92745 | 41 ft | 2 kts | 222° |
| 2026-05-03 21:24 | 22.31482 | 113.92757 | 41 ft | 2 kts | 240° |
| 2026-05-03 21:24 | 22.31488 | 113.92773 | 41 ft | 2 kts | 256° |
| 2026-05-03 21:25 | 22.31490 | 113.92788 | 41 ft | 2 kts | 268° |
| 2026-05-03 21:25 | 22.31493 | 113.92804 | 41 ft | 2 kts | 252° |
| 2026-05-03 21:25 | 22.31497 | 113.92819 | 41 ft | 2 kts | 251° |
| 2026-05-03 21:25 | 22.31502 | 113.92834 | 41 ft | 2 kts | 253° |
| 2026-05-03 21:26 | 22.31505 | 113.92844 | 41 ft | 0 kts | 254° |
| 2026-05-03 21:29 | 22.31504 | 113.92843 | 41 ft | 0 kts | 254° |
| 2026-05-03 21:30 | 22.31496 | 113.92811 | 41 ft | 9 kts | 255° |
| 2026-05-03 21:31 | 22.31510 | 113.92712 | 41 ft | 16 kts | 295° |
| 2026-05-03 21:31 | 22.31560 | 113.92599 | 41 ft | 16 kts | 296° |
| 2026-05-03 21:31 | 22.31620 | 113.92469 | 41 ft | 22 kts | 297° |
| 2026-05-03 21:31 | 22.31620 | 113.92300 | 41 ft | 19 kts | 251° |
| 2026-05-03 21:32 | 22.31600 | 113.92236 | 41 ft | 8 kts | 251° |
| 2026-05-03 21:32 | 22.31569 | 113.92136 | 41 ft | 20 kts | 252° |
| 2026-05-03 21:32 | 22.31454 | 113.92086 | 41 ft | 26 kts | 161° |
| 2026-05-03 21:32 | 22.31263 | 113.92158 | 41 ft | 28 kts | 163° |
| 2026-05-03 21:33 | 22.31077 | 113.92226 | 41 ft | 27 kts | 161° |
| 2026-05-03 21:33 | 22.30889 | 113.92297 | 41 ft | 28 kts | 161° |
| 2026-05-03 21:33 | 22.30701 | 113.92355 | 41 ft | 26 kts | 167° |
| 2026-05-03 21:33 | 22.30591 | 113.92233 | 41 ft | 28 kts | 248° |
| 2026-05-03 21:34 | 22.30514 | 113.92003 | 41 ft | 34 kts | 251° |
| 2026-05-03 21:34 | 22.30439 | 113.91758 | 41 ft | 33 kts | 249° |
| 2026-05-03 21:34 | 22.30358 | 113.91516 | 41 ft | 37 kts | 251° |
| 2026-05-03 21:34 | 22.30263 | 113.91223 | 41 ft | 42 kts | 250° |
| 2026-05-03 21:35 | 22.30169 | 113.90931 | 41 ft | 40 kts | 252° |
| 2026-05-03 21:35 | 22.30077 | 113.90648 | 41 ft | 40 kts | 249° |
| 2026-05-03 21:35 | 22.29976 | 113.90340 | 41 ft | 45 kts | 253° |
| 2026-05-03 21:35 | 22.29868 | 113.89997 | 41 ft | 47 kts | 251° |
| 2026-05-03 21:36 | 22.29778 | 113.89784 | 41 ft | 16 kts | 208° |
| 2026-05-03 21:36 | 22.29723 | 113.89780 | 41 ft | 10 kts | 166° |
| 2026-05-03 21:36 | 22.29672 | 113.89799 | 41 ft | 10 kts | 154° |
| 2026-05-03 21:36 | 22.29650 | 113.89867 | 41 ft | 10 kts | 85° |
| 2026-05-03 21:37 | 22.29662 | 113.89922 | 41 ft | 1 kts | 68° |
| 2026-05-03 21:37 | 22.29678 | 113.89970 | 41 ft | 19 kts | 72° |
| 2026-05-03 21:37 | 22.29826 | 113.90435 | 41 ft | 111 kts | 72° |
| 2026-05-03 21:37 | 22.30158 | 113.91477 | 276 ft | 170 kts | 67° |
| 2026-05-03 21:38 | 22.30549 | 113.92660 | 1332 ft | 171 kts | 66° |
| 2026-05-03 21:38 | 22.30954 | 113.93810 | 2196 ft | 172 kts | 67° |
| 2026-05-03 21:38 | 22.31356 | 113.95094 | 2817 ft | 188 kts | 69° |
| 2026-05-03 21:38 | 22.31812 | 113.96482 | 3490 ft | 203 kts | 68° |
| 2026-05-03 21:39 | 22.32323 | 113.97958 | 4232 ft | 216 kts | 70° |
| 2026-05-03 21:39 | 22.32759 | 113.99535 | 4931 ft | 226 kts | 72° |
| 2026-05-03 21:39 | 22.33290 | 114.01236 | 5338 ft | 251 kts | 70° |
| 2026-05-03 21:39 | 22.33804 | 114.03101 | 6116 ft | 269 kts | 81° |
| 2026-05-03 21:40 | 22.33723 | 114.05171 | 6904 ft | 286 kts | 106° |
| 2026-05-03 21:40 | 22.32801 | 114.07056 | 7820 ft | 293 kts | 134° |
| 2026-05-03 21:40 | 22.31155 | 114.08350 | 8834 ft | 293 kts | 161° |
| 2026-05-03 21:40 | 22.29166 | 114.08736 | 9791 ft | 293 kts | 185° |
| 2026-05-03 21:41 | 22.27120 | 114.08608 | 10754 ft | 301 kts | 187° |
| 2026-05-03 21:41 | 22.24962 | 114.08598 | 11518 ft | 319 kts | 180° |
| 2026-05-03 21:41 | 22.22694 | 114.08956 | 12258 ft | 338 kts | 171° |
| 2026-05-03 21:41 | 22.20395 | 114.09746 | 13003 ft | 356 kts | 161° |
| 2026-05-03 21:42 | 22.18138 | 114.11014 | 13724 ft | 375 kts | 150° |
| 2026-05-03 21:42 | 22.16025 | 114.12789 | 14427 ft | 394 kts | 140° |
| 2026-05-03 21:42 | 22.14169 | 114.15088 | 15086 ft | 413 kts | 128° |
| 2026-05-03 21:42 | 22.12733 | 114.17872 | 15881 ft | 426 kts | 115° |
| 2026-05-03 21:43 | 22.11864 | 114.20923 | 16697 ft | 437 kts | 103° |
| 2026-05-03 21:43 | 22.11441 | 114.24206 | 17556 ft | 443 kts | 98° |
| 2026-05-03 21:43 | 22.11049 | 114.27502 | 18438 ft | 446 kts | 102° |
| 2026-05-03 21:43 | 22.10292 | 114.30778 | 19171 ft | 450 kts | 111° |
| 2026-05-03 21:44 | 22.09025 | 114.33904 | 19815 ft | 456 kts | 122° |
| 2026-05-03 21:44 | 22.07298 | 114.36771 | 20528 ft | 458 kts | 129° |
| 2026-05-03 21:44 | 22.05401 | 114.39533 | 21272 ft | 463 kts | 130° |
| 2026-05-03 21:44 | 22.03436 | 114.42375 | 21986 ft | 469 kts | 130° |
| 2026-05-03 21:45 | 22.01461 | 114.45235 | 22652 ft | 475 kts | 130° |
| 2026-05-03 21:45 | 21.99466 | 114.48130 | 23367 ft | 480 kts | 130° |
| 2026-05-03 21:45 | 21.97469 | 114.51032 | 24056 ft | 485 kts | 130° |
| 2026-05-03 21:45 | 21.95453 | 114.53961 | 24721 ft | 490 kts | 130° |
| 2026-05-03 21:46 | 21.93417 | 114.56919 | 25388 ft | 495 kts | 130° |
| 2026-05-03 21:46 | 21.91354 | 114.59919 | 26092 ft | 500 kts | 130° |
| 2026-05-03 21:46 | 21.89269 | 114.62951 | 26796 ft | 505 kts | 130° |
| 2026-05-03 21:46 | 21.87185 | 114.65977 | 27457 ft | 510 kts | 130° |
| 2026-05-03 21:47 | 21.85047 | 114.69083 | 28078 ft | 516 kts | 130° |
| 2026-05-03 21:47 | 21.82915 | 114.72178 | 28700 ft | 521 kts | 130° |
| 2026-05-03 21:47 | 21.80738 | 114.75337 | 29383 ft | 525 kts | 130° |
| 2026-05-03 21:47 | 21.78589 | 114.78511 | 30254 ft | 526 kts | 127° |
| 2026-05-03 21:48 | 21.76794 | 114.81924 | 31318 ft | 524 kts | 118° |
| 2026-05-03 21:48 | 21.75489 | 114.85555 | 32317 ft | 523 kts | 109° |
| 2026-05-03 21:48 | 21.74677 | 114.89346 | 33227 ft | 523 kts | 101° |
| 2026-05-03 21:48 | 21.74368 | 114.93273 | 34043 ft | 524 kts | 92° |
| 2026-05-03 21:49 | 21.74340 | 114.97146 | 34812 ft | 523 kts | 91° |
| 2026-05-03 21:49 | 21.74342 | 115.01090 | 35629 ft | 521 kts | 91° |
| 2026-05-03 21:49 | 21.74345 | 115.04951 | 36491 ft | 517 kts | 91° |
| 2026-05-03 21:49 | 21.74346 | 115.08826 | 36955 ft | 520 kts | 91° |
| 2026-05-03 21:50 | 21.74343 | 115.16634 | 36967 ft | 517 kts | 91° |
| 2026-05-03 21:50 | 21.74334 | 115.24351 | 36967 ft | 517 kts | 91° |
| 2026-05-03 21:51 | 21.74320 | 115.32098 | 36966 ft | 517 kts | 91° |
| 2026-05-03 21:51 | 21.74301 | 115.39810 | 36970 ft | 516 kts | 91° |
| 2026-05-03 21:52 | 21.74279 | 115.47515 | 36973 ft | 518 kts | 91° |
| 2026-05-03 21:52 | 21.74254 | 115.55261 | 36973 ft | 518 kts | 91° |
| 2026-05-03 21:53 | 21.74225 | 115.62992 | 36972 ft | 518 kts | 90° |
| 2026-05-03 21:53 | 21.74196 | 115.70764 | 36965 ft | 518 kts | 91° |
| 2026-05-03 21:54 | 21.74161 | 115.78597 | 36967 ft | 530 kts | 91° |
| 2026-05-03 21:54 | 21.74121 | 115.86757 | 36965 ft | 547 kts | 91° |
| 2026-05-03 21:55 | 21.74077 | 115.94995 | 36967 ft | 554 kts | 91° |
| 2026-05-03 21:55 | 21.74030 | 116.03252 | 36968 ft | 553 kts | 91° |
| 2026-05-03 21:56 | 21.73978 | 116.11531 | 36967 ft | 552 kts | 91° |
| 2026-05-03 21:56 | 21.73921 | 116.19817 | 36969 ft | 553 kts | 91° |
| 2026-05-03 21:57 | 21.73861 | 116.28057 | 36969 ft | 552 kts | 91° |
| 2026-05-03 21:57 | 21.73796 | 116.36382 | 36970 ft | 553 kts | 91° |
| 2026-05-03 21:58 | 21.73727 | 116.44655 | 36963 ft | 553 kts | 91° |
| 2026-05-03 21:58 | 21.73654 | 116.52927 | 36967 ft | 553 kts | 91° |
| 2026-05-03 21:59 | 21.73578 | 116.61162 | 36967 ft | 552 kts | 91° |
| 2026-05-03 21:59 | 21.73497 | 116.69402 | 36959 ft | 553 kts | 91° |
| 2026-05-03 22:00 | 21.73800 | 116.77682 | 36959 ft | 553 kts | 81° |
| 2026-05-03 22:00 | 21.75967 | 116.85651 | 36966 ft | 553 kts | 68° |
| 2026-05-03 22:01 | 21.78784 | 116.93411 | 36962 ft | 551 kts | 67° |
| 2026-05-03 22:01 | 21.81617 | 117.01214 | 36961 ft | 552 kts | 68° |
| 2026-05-03 22:02 | 21.84404 | 117.08916 | 36964 ft | 552 kts | 67° |
| 2026-05-03 22:02 | 21.87206 | 117.16679 | 36967 ft | 554 kts | 68° |
| 2026-05-03 22:03 | 21.89966 | 117.24344 | 36969 ft | 553 kts | 68° |
| 2026-05-03 22:03 | 21.92753 | 117.32100 | 36969 ft | 552 kts | 68° |
| 2026-05-03 22:04 | 21.95532 | 117.39846 | 36968 ft | 553 kts | 68° |
| 2026-05-03 22:04 | 21.98291 | 117.47548 | 36970 ft | 553 kts | 66° |
| 2026-05-03 22:05 | 22.01910 | 117.54871 | 36972 ft | 552 kts | 56° |
| 2026-05-03 22:05 | 22.05909 | 117.61897 | 36967 ft | 551 kts | 56° |
| 2026-05-03 22:06 | 22.09928 | 117.68966 | 36951 ft | 551 kts | 57° |
| 2026-05-03 22:06 | 22.13934 | 117.76028 | 36954 ft | 551 kts | 57° |
| 2026-05-03 22:07 | 22.17932 | 117.83091 | 36954 ft | 551 kts | 57° |
| 2026-05-03 22:07 | 22.21915 | 117.90136 | 36955 ft | 551 kts | 57° |
| 2026-05-03 22:08 | 22.25907 | 117.97208 | 36953 ft | 552 kts | 57° |
| 2026-05-03 22:08 | 22.29933 | 118.04260 | 36958 ft | 551 kts | 56° |
| 2026-05-03 22:09 | 22.34021 | 118.11247 | 36957 ft | 552 kts | 56° |
| 2026-05-03 22:10 | 22.40172 | 118.21789 | 36963 ft | 553 kts | 56° |
| 2026-05-03 22:10 | 22.44190 | 118.28842 | 36963 ft | 554 kts | 56° |
| 2026-05-03 22:11 | 22.48221 | 118.35970 | 36960 ft | 552 kts | 56° |
| 2026-05-03 22:11 | 22.52202 | 118.43013 | 36961 ft | 553 kts | 56° |
| 2026-05-03 22:12 | 22.56219 | 118.50130 | 36965 ft | 555 kts | 56° |
| 2026-05-03 22:12 | 22.60259 | 118.57243 | 36961 ft | 554 kts | 56° |
| 2026-05-03 22:13 | 22.64286 | 118.64309 | 36963 ft | 555 kts | 56° |
| 2026-05-03 22:13 | 22.68370 | 118.71489 | 36951 ft | 555 kts | 57° |
| 2026-05-03 22:14 | 22.72399 | 118.78583 | 36950 ft | 556 kts | 56° |
| 2026-05-03 22:14 | 22.76440 | 118.85709 | 36946 ft | 556 kts | 56° |
| 2026-05-03 22:15 | 22.80483 | 118.92848 | 36949 ft | 556 kts | 56° |
| 2026-05-03 22:15 | 22.84527 | 118.99998 | 36947 ft | 557 kts | 56° |
| 2026-05-03 22:16 | 22.88548 | 119.07118 | 36949 ft | 557 kts | 56° |
| 2026-05-03 22:16 | 22.92599 | 119.14302 | 36949 ft | 557 kts | 56° |
| 2026-05-03 22:17 | 22.97313 | 119.22674 | 36951 ft | 557 kts | 56° |
| 2026-05-03 22:17 | 23.00682 | 119.28664 | 36961 ft | 558 kts | 56° |
| 2026-05-03 22:18 | 23.04725 | 119.35864 | 36968 ft | 556 kts | 56° |
| 2026-05-03 22:18 | 23.08783 | 119.43100 | 36973 ft | 559 kts | 56° |
| 2026-05-03 22:19 | 23.12744 | 119.50175 | 36964 ft | 557 kts | 56° |
| 2026-05-03 22:19 | 23.18060 | 119.58047 | 36963 ft | 553 kts | 41° |
| 2026-05-03 22:20 | 23.23044 | 119.62392 | 36961 ft | 545 kts | 27° |
| 2026-05-03 22:20 | 23.29566 | 119.66562 | 36958 ft | 542 kts | 25° |
| 2026-05-03 22:21 | 23.37203 | 119.71365 | 36960 ft | 541 kts | 25° |
| 2026-05-03 22:21 | 23.42665 | 119.74805 | 36968 ft | 544 kts | 25° |
| 2026-05-03 22:22 | 23.49198 | 119.78936 | 36960 ft | 543 kts | 26° |
| 2026-05-03 22:22 | 23.55495 | 119.83266 | 36959 ft | 519 kts | 27° |
| 2026-05-03 22:22 | 23.58520 | 119.85367 | 36962 ft | 508 kts | 27° |
| 2026-05-03 22:23 | 23.61528 | 119.87450 | 36893 ft | 511 kts | 27° |
| 2026-05-03 22:23 | 23.64537 | 119.89529 | 36169 ft | 520 kts | 27° |
| 2026-05-03 22:23 | 23.67646 | 119.91675 | 34963 ft | 527 kts | 28° |
| 2026-05-03 22:23 | 23.70755 | 119.93823 | 33972 ft | 530 kts | 28° |
| 2026-05-03 22:24 | 23.73850 | 119.95963 | 33056 ft | 530 kts | 28° |
| 2026-05-03 22:24 | 23.76963 | 119.98116 | 32172 ft | 532 kts | 28° |
| 2026-05-03 22:24 | 23.80115 | 120.00296 | 31207 ft | 535 kts | 28° |
| 2026-05-03 22:24 | 23.83237 | 120.02457 | 30350 ft | 535 kts | 28° |
| 2026-05-03 22:25 | 23.86356 | 120.04617 | 29802 ft | 528 kts | 29° |
| 2026-05-03 22:25 | 23.89446 | 120.06759 | 29209 ft | 523 kts | 29° |
| 2026-05-03 22:25 | 23.92519 | 120.08889 | 28562 ft | 518 kts | 29° |
| 2026-05-03 22:25 | 23.95544 | 120.10987 | 27905 ft | 514 kts | 29° |
| 2026-05-03 22:26 | 23.99557 | 120.13771 | 27030 ft | 509 kts | 28° |
| 2026-05-03 22:26 | 24.01551 | 120.15155 | 26581 ft | 506 kts | 29° |
| 2026-05-03 22:26 | 24.04522 | 120.17218 | 25910 ft | 502 kts | 29° |
| 2026-05-03 22:26 | 24.07467 | 120.19264 | 25239 ft | 498 kts | 28° |
| 2026-05-03 22:27 | 24.10382 | 120.21291 | 24559 ft | 494 kts | 28° |
| 2026-05-03 22:27 | 24.13256 | 120.23289 | 23885 ft | 490 kts | 28° |
| 2026-05-03 22:27 | 24.16139 | 120.25296 | 23205 ft | 486 kts | 28° |
| 2026-05-03 22:27 | 24.19744 | 120.27806 | 22338 ft | 482 kts | 28° |
| 2026-05-03 22:28 | 24.21639 | 120.29126 | 21897 ft | 479 kts | 28° |
| 2026-05-03 22:28 | 24.24448 | 120.31084 | 21214 ft | 476 kts | 28° |
| 2026-05-03 22:28 | 24.27234 | 120.33026 | 20536 ft | 474 kts | 28° |
| 2026-05-03 22:28 | 24.30027 | 120.34975 | 19827 ft | 471 kts | 28° |
| 2026-05-03 22:29 | 24.32781 | 120.36897 | 19138 ft | 469 kts | 28° |
| 2026-05-03 22:29 | 24.35521 | 120.38810 | 18433 ft | 466 kts | 28° |
| 2026-05-03 22:29 | 24.38259 | 120.40723 | 17719 ft | 464 kts | 29° |
| 2026-05-03 22:29 | 24.41893 | 120.43263 | 16788 ft | 460 kts | 29° |
| 2026-05-03 22:30 | 24.44583 | 120.45145 | 16075 ft | 457 kts | 29° |
| 2026-05-03 22:30 | 24.47268 | 120.47025 | 15342 ft | 453 kts | 30° |
| 2026-05-03 22:30 | 24.49035 | 120.48264 | 14871 ft | 448 kts | 30° |
| 2026-05-03 22:30 | 24.51669 | 120.50109 | 14188 ft | 439 kts | 30° |
| 2026-05-03 22:31 | 24.54226 | 120.51902 | 13518 ft | 431 kts | 30° |
| 2026-05-03 22:31 | 24.56733 | 120.53660 | 12834 ft | 424 kts | 30° |
| 2026-05-03 22:31 | 24.59219 | 120.55405 | 12120 ft | 415 kts | 30° |
| 2026-05-03 22:31 | 24.61645 | 120.57109 | 11452 ft | 399 kts | 30° |
| 2026-05-03 22:32 | 24.63984 | 120.58752 | 10899 ft | 390 kts | 30° |
| 2026-05-03 22:32 | 24.66271 | 120.60358 | 10642 ft | 378 kts | 30° |
| 2026-05-03 22:32 | 24.68358 | 120.62109 | 10502 ft | 365 kts | 38° |
| 2026-05-03 22:32 | 24.70251 | 120.63950 | 10355 ft | 352 kts | 39° |
| 2026-05-03 22:33 | 24.72068 | 120.65730 | 10138 ft | 339 kts | 39° |
| 2026-05-03 22:33 | 24.73764 | 120.67396 | 10009 ft | 317 kts | 39° |
| 2026-05-03 22:33 | 24.75394 | 120.68999 | 9819 ft | 307 kts | 39° |
| 2026-05-03 22:33 | 24.77555 | 120.71119 | 9224 ft | 311 kts | 39° |
| 2026-05-03 22:34 | 24.79172 | 120.72708 | 8828 ft | 313 kts | 40° |
| 2026-05-03 22:34 | 24.80821 | 120.74331 | 8423 ft | 313 kts | 40° |
| 2026-05-03 22:34 | 24.81890 | 120.75383 | 8341 ft | 305 kts | 40° |
| 2026-05-03 22:34 | 24.83487 | 120.76957 | 7957 ft | 306 kts | 40° |
| 2026-05-03 22:35 | 24.85610 | 120.79048 | 7550 ft | 300 kts | 40° |
| 2026-05-03 22:35 | 24.86657 | 120.80080 | 7238 ft | 298 kts | 41° |
| 2026-05-03 22:35 | 24.88188 | 120.81589 | 6787 ft | 292 kts | 41° |
| 2026-05-03 22:35 | 24.89704 | 120.83084 | 6417 ft | 285 kts | 41° |
| 2026-05-03 22:36 | 24.91028 | 120.84705 | 6028 ft | 283 kts | 61° |
| 2026-05-03 22:36 | 24.91608 | 120.86746 | 5714 ft | 278 kts | 84° |
| 2026-05-03 22:36 | 24.91690 | 120.88870 | 5321 ft | 272 kts | 91° |
| 2026-05-03 22:36 | 24.91624 | 120.90925 | 5015 ft | 261 kts | 92° |
| 2026-05-03 22:37 | 24.91531 | 120.92866 | 4737 ft | 250 kts | 92° |
| 2026-05-03 22:37 | 24.91406 | 120.95355 | 4377 ft | 233 kts | 91° |
| 2026-05-03 22:37 | 24.91318 | 120.97093 | 4185 ft | 220 kts | 91° |
| 2026-05-03 22:37 | 24.91236 | 120.98721 | 4185 ft | 208 kts | 91° |
| 2026-05-03 22:38 | 24.91184 | 120.99769 | 4142 ft | 204 kts | 91° |
| 2026-05-03 22:38 | 24.91106 | 121.01324 | 4071 ft | 200 kts | 91° |
| 2026-05-03 22:38 | 24.91147 | 121.02813 | 3996 ft | 188 kts | 73° |
| 2026-05-03 22:38 | 24.91742 | 121.04054 | 3979 ft | 181 kts | 54° |
| 2026-05-03 22:39 | 24.92496 | 121.05149 | 3986 ft | 177 kts | 54° |
| 2026-05-03 22:39 | 24.93524 | 121.06573 | 3766 ft | 175 kts | 51° |
| 2026-05-03 22:39 | 24.94056 | 121.07246 | 3619 ft | 171 kts | 50° |
| 2026-05-03 22:39 | 24.94838 | 121.08216 | 3407 ft | 168 kts | 50° |
| 2026-05-03 22:40 | 24.95603 | 121.09167 | 3192 ft | 162 kts | 50° |
| 2026-05-03 22:40 | 24.96574 | 121.10384 | 2921 ft | 155 kts | 50° |
| 2026-05-03 22:40 | 24.97049 | 121.10978 | 2785 ft | 151 kts | 50° |
| 2026-05-03 22:40 | 24.97719 | 121.11820 | 2592 ft | 141 kts | 51° |
| 2026-05-03 22:41 | 24.98337 | 121.12598 | 2412 ft | 128 kts | 51° |
| 2026-05-03 22:41 | 24.98912 | 121.13323 | 2256 ft | 125 kts | 50° |
| 2026-05-03 22:41 | 24.99486 | 121.14045 | 2094 ft | 124 kts | 50° |
| 2026-05-03 22:41 | 25.00055 | 121.14764 | 1931 ft | 123 kts | 50° |
| 2026-05-03 22:42 | 25.00620 | 121.15474 | 1766 ft | 122 kts | 50° |
| 2026-05-03 22:42 | 25.01366 | 121.16415 | 1557 ft | 121 kts | 50° |
| 2026-05-03 22:42 | 25.01733 | 121.16879 | 1444 ft | 122 kts | 50° |
| 2026-05-03 22:42 | 25.02306 | 121.17600 | 1283 ft | 124 kts | 50° |
| 2026-05-03 22:43 | 25.02860 | 121.18299 | 1120 ft | 125 kts | 50° |
| 2026-05-03 22:43 | 25.03448 | 121.19041 | 945 ft | 127 kts | 50° |
| 2026-05-03 22:43 | 25.04046 | 121.19785 | 744 ft | 130 kts | 48° |
| 2026-05-03 22:43 | 25.04859 | 121.20785 | 547 ft | 135 kts | 52° |
| 2026-05-03 22:44 | 25.05256 | 121.21307 | 398 ft | 131 kts | 48° |
| 2026-05-03 22:44 | 25.05866 | 121.22070 | 243 ft | 134 kts | 50° |
| 2026-05-03 22:44 | 25.06478 | 121.22849 | 122 ft | 128 kts | 49° |
| 2026-05-03 22:44 | 25.07005 | 121.23521 | 121 ft | 98 kts | 49° |
| 2026-05-03 22:45 | 25.07351 | 121.23965 | 121 ft | 29 kts | 50° |
| 2026-05-03 22:45 | 25.07455 | 121.24079 | 121 ft | 18 kts | 39° |
| 2026-05-03 22:45 | 25.07549 | 121.24149 | 121 ft | 14 kts | 29° |
| 2026-05-03 22:45 | 25.07623 | 121.24188 | 121 ft | 0 kts | 22° |
| 2026-05-03 22:46 | 25.07624 | 121.24189 | 121 ft | 1 kts | 22° |
| 2026-05-03 22:46 | 25.07650 | 121.24200 | 121 ft | 9 kts | 20° |
| 2026-05-03 22:46 | 25.07739 | 121.24232 | 121 ft | 12 kts | 22° |
| 2026-05-03 22:46 | 25.07869 | 121.24260 | 121 ft | 14 kts | 343° |
| 2026-05-03 22:47 | 25.07925 | 121.24222 | 121 ft | 15 kts | 318° |
| 2026-05-03 22:47 | 25.07950 | 121.24065 | 121 ft | 17 kts | 263° |
| 2026-05-03 22:47 | 25.07995 | 121.23998 | 121 ft | 2 kts | 321° |
| 2026-05-03 22:47 | 25.08010 | 121.23985 | 121 ft | 3 kts | 319° |
| 2026-05-03 22:48 | 25.08018 | 121.23977 | 121 ft | 0 kts | 319° |